sensor_id;sensor_type;location;lat;lon;timestamp;temperature;humidity
5210;DHT22;2624;48.048;11.706;2022-07-17T00:03:57;18.70;73.50
5210;DHT22;2624;48.048;11.706;2022-07-17T00:09:00;19.30;70.00
5210;DHT22;2624;48.048;11.706;2022-07-17T00:14:02;19.70;68.40
5210;DHT22;2624;48.048;11.706;2022-07-17T00:19:04;19.40;69.50
5210;DHT22;2624;48.048;11.706;2022-07-17T00:24:08;19.00;70.90
5210;DHT22;2624;48.048;11.706;2022-07-17T00:29:10;18.50;72.70
5210;DHT22;2624;48.048;11.706;2022-07-17T00:34:12;18.60;72.40
5210;DHT22;2624;48.048;11.706;2022-07-17T00:39:15;18.30;73.40
5210;DHT22;2624;48.048;11.706;2022-07-17T00:44:17;18.10;74.20
5210;DHT22;2624;48.048;11.706;2022-07-17T00:49:19;18.50;72.80
5210;DHT22;2624;48.048;11.706;2022-07-17T00:54:23;18.80;71.50
5210;DHT22;2624;48.048;11.706;2022-07-17T00:59:25;19.20;69.80
5210;DHT22;2624;48.048;11.706;2022-07-17T01:04:27;19.20;70.20
5210;DHT22;2624;48.048;11.706;2022-07-17T01:09:31;18.80;71.60
5210;DHT22;2624;48.048;11.706;2022-07-17T01:14:33;18.70;71.00
5210;DHT22;2624;48.048;11.706;2022-07-17T01:19:35;19.10;70.20
5210;DHT22;2624;48.048;11.706;2022-07-17T01:24:40;19.20;69.90
5210;DHT22;2624;48.048;11.706;2022-07-17T01:29:42;19.20;69.60
5210;DHT22;2624;48.048;11.706;2022-07-17T01:34:44;19.20;69.70
5210;DHT22;2624;48.048;11.706;2022-07-17T01:39:47;19.00;70.30
5210;DHT22;2624;48.048;11.706;2022-07-17T01:44:55;19.00;70.10
5210;DHT22;2624;48.048;11.706;2022-07-17T01:49:58;18.80;70.60
5210;DHT22;2624;48.048;11.706;2022-07-17T01:55:01;18.30;72.00
5210;DHT22;2624;48.048;11.706;2022-07-17T02:00:06;17.60;73.90
5210;DHT22;2624;48.048;11.706;2022-07-17T02:05:08;18.00;72.90
5210;DHT22;2624;48.048;11.706;2022-07-17T02:10:12;17.50;74.60
5210;DHT22;2624;48.048;11.706;2022-07-17T02:15:15;17.80;73.40
5210;DHT22;2624;48.048;11.706;2022-07-17T02:20:17;17.90;73.20
5210;DHT22;2624;48.048;11.706;2022-07-17T02:25:20;17.30;75.30
5210;DHT22;2624;48.048;11.706;2022-07-17T02:30:22;17.40;75.00
5210;DHT22;2624;48.048;11.706;2022-07-17T02:35:24;17.10;76.50
5210;DHT22;2624;48.048;11.706;2022-07-17T02:40:27;17.50;74.30
5210;DHT22;2624;48.048;11.706;2022-07-17T02:45:29;17.90;72.70
5210;DHT22;2624;48.048;11.706;2022-07-17T02:50:31;17.80;73.40
5210;DHT22;2624;48.048;11.706;2022-07-17T02:55:34;17.00;76.20
5210;DHT22;2624;48.048;11.706;2022-07-17T03:00:36;17.00;75.90
5210;DHT22;2624;48.048;11.706;2022-07-17T03:05:38;17.00;76.30
5210;DHT22;2624;48.048;11.706;2022-07-17T03:10:41;17.40;74.30
5210;DHT22;2624;48.048;11.706;2022-07-17T03:15:43;17.70;73.10
5210;DHT22;2624;48.048;11.706;2022-07-17T03:20:45;17.70;72.90
5210;DHT22;2624;48.048;11.706;2022-07-17T03:25:48;17.30;74.70
5210;DHT22;2624;48.048;11.706;2022-07-17T03:30:50;17.00;75.80
5210;DHT22;2624;48.048;11.706;2022-07-17T03:35:52;17.30;74.50
5210;DHT22;2624;48.048;11.706;2022-07-17T03:40:55;17.50;73.50
5210;DHT22;2624;48.048;11.706;2022-07-17T03:45:57;17.50;74.10
5210;DHT22;2624;48.048;11.706;2022-07-17T03:50:58;17.00;75.40
5210;DHT22;2624;48.048;11.706;2022-07-17T03:56:02;16.90;75.60
5210;DHT22;2624;48.048;11.706;2022-07-17T04:01:04;16.90;75.60
5210;DHT22;2624;48.048;11.706;2022-07-17T04:06:05;16.60;76.60
5210;DHT22;2624;48.048;11.706;2022-07-17T04:11:09;16.80;75.30
5210;DHT22;2624;48.048;11.706;2022-07-17T04:16:11;16.90;75.20
5210;DHT22;2624;48.048;11.706;2022-07-17T04:21:12;16.50;77.20
5210;DHT22;2624;48.048;11.706;2022-07-17T04:26:16;16.60;76.30
5210;DHT22;2624;48.048;11.706;2022-07-17T04:31:18;16.30;78.00
5210;DHT22;2624;48.048;11.706;2022-07-17T04:36:20;16.00;79.20
5210;DHT22;2624;48.048;11.706;2022-07-17T04:41:23;16.00;79.30
5210;DHT22;2624;48.048;11.706;2022-07-17T04:46:26;16.00;79.20
5210;DHT22;2624;48.048;11.706;2022-07-17T04:51:28;16.10;79.00
5210;DHT22;2624;48.048;11.706;2022-07-17T04:56:31;16.00;79.30
5210;DHT22;2624;48.048;11.706;2022-07-17T05:01:33;16.10;78.90
5210;DHT22;2624;48.048;11.706;2022-07-17T05:06:34;16.30;78.20
5210;DHT22;2624;48.048;11.706;2022-07-17T05:11:37;16.00;81.10
5210;DHT22;2624;48.048;11.706;2022-07-17T05:16:39;15.80;82.60
5210;DHT22;2624;48.048;11.706;2022-07-17T05:21:41;16.10;81.40
5210;DHT22;2624;48.048;11.706;2022-07-17T05:26:45;16.10;79.60
5210;DHT22;2624;48.048;11.706;2022-07-17T05:31:46;16.20;79.50
5210;DHT22;2624;48.048;11.706;2022-07-17T05:36:48;16.30;81.30
5210;DHT22;2624;48.048;11.706;2022-07-17T05:41:51;16.20;81.00
5210;DHT22;2624;48.048;11.706;2022-07-17T05:46:53;16.20;82.10
5210;DHT22;2624;48.048;11.706;2022-07-17T05:51:55;16.40;79.60
5210;DHT22;2624;48.048;11.706;2022-07-17T05:56:58;16.10;84.00
5210;DHT22;2624;48.048;11.706;2022-07-17T06:02:00;16.10;83.00
5210;DHT22;2624;48.048;11.706;2022-07-17T06:07:02;16.30;81.30
5210;DHT22;2624;48.048;11.706;2022-07-17T06:12:05;16.70;78.10
5210;DHT22;2624;48.048;11.706;2022-07-17T06:17:07;16.70;77.90
5210;DHT22;2624;48.048;11.706;2022-07-17T06:22:09;16.90;77.10
5210;DHT22;2624;48.048;11.706;2022-07-17T06:27:12;17.00;76.90
5210;DHT22;2624;48.048;11.706;2022-07-17T06:32:14;17.00;76.80
5210;DHT22;2624;48.048;11.706;2022-07-17T06:37:16;17.00;79.90
5210;DHT22;2624;48.048;11.706;2022-07-17T06:42:19;17.00;79.70
5210;DHT22;2624;48.048;11.706;2022-07-17T06:47:20;17.10;80.10
5210;DHT22;2624;48.048;11.706;2022-07-17T06:52:22;17.20;77.20
5210;DHT22;2624;48.048;11.706;2022-07-17T06:57:25;17.30;76.50
5210;DHT22;2624;48.048;11.706;2022-07-17T07:02:27;17.30;76.20
5210;DHT22;2624;48.048;11.706;2022-07-17T07:07:29;17.40;77.00
5210;DHT22;2624;48.048;11.706;2022-07-17T07:12:32;17.70;75.80
5210;DHT22;2624;48.048;11.706;2022-07-17T07:17:34;18.00;75.70
5210;DHT22;2624;48.048;11.706;2022-07-17T07:22:36;17.90;75.10
5210;DHT22;2624;48.048;11.706;2022-07-17T07:27:40;17.70;76.30
5210;DHT22;2624;48.048;11.706;2022-07-17T07:32:41;17.70;75.60
5210;DHT22;2624;48.048;11.706;2022-07-17T07:37:43;18.00;75.70
5210;DHT22;2624;48.048;11.706;2022-07-17T07:42:46;18.00;75.20
5210;DHT22;2624;48.048;11.706;2022-07-17T07:47:49;17.90;75.00
5210;DHT22;2624;48.048;11.706;2022-07-17T07:52:52;18.10;73.90
5210;DHT22;2624;48.048;11.706;2022-07-17T07:58:03;18.30;73.00
5210;DHT22;2624;48.048;11.706;2022-07-17T08:03:05;18.90;69.50
5210;DHT22;2624;48.048;11.706;2022-07-17T08:08:07;19.30;66.00
5210;DHT22;2624;48.048;11.706;2022-07-17T08:13:10;19.60;66.80
5210;DHT22;2624;48.048;11.706;2022-07-17T08:18:11;19.10;70.60
5210;DHT22;2624;48.048;11.706;2022-07-17T08:23:13;18.80;71.20
5210;DHT22;2624;48.048;11.706;2022-07-17T08:28:16;18.80;71.20
5210;DHT22;2624;48.048;11.706;2022-07-17T08:33:18;19.00;70.90
5210;DHT22;2624;48.048;11.706;2022-07-17T08:38:20;19.80;68.90
5210;DHT22;2624;48.048;11.706;2022-07-17T08:43:23;20.50;65.90
5210;DHT22;2624;48.048;11.706;2022-07-17T08:48:26;19.80;69.70
5210;DHT22;2624;48.048;11.706;2022-07-17T08:53:29;20.30;66.30
5210;DHT22;2624;48.048;11.706;2022-07-17T08:58:32;19.70;68.60
5210;DHT22;2624;48.048;11.706;2022-07-17T09:03:34;19.60;68.70
5210;DHT22;2624;48.048;11.706;2022-07-17T09:08:37;20.60;63.90
5210;DHT22;2624;48.048;11.706;2022-07-17T09:13:44;21.20;62.30
5210;DHT22;2624;48.048;11.706;2022-07-17T09:18:47;21.10;64.50
5210;DHT22;2624;48.048;11.706;2022-07-17T09:23:58;21.70;63.10
5210;DHT22;2624;48.048;11.706;2022-07-17T09:29:02;20.90;66.00
5210;DHT22;2624;48.048;11.706;2022-07-17T09:34:04;20.80;67.80
5210;DHT22;2624;48.048;11.706;2022-07-17T09:39:06;22.20;62.30
5210;DHT22;2624;48.048;11.706;2022-07-17T09:44:09;22.00;63.50
5210;DHT22;2624;48.048;11.706;2022-07-17T09:49:13;21.50;64.60
5210;DHT22;2624;48.048;11.706;2022-07-17T09:54:15;21.80;63.70
5210;DHT22;2624;48.048;11.706;2022-07-17T09:59:22;22.30;62.50
5210;DHT22;2624;48.048;11.706;2022-07-17T10:04:27;23.10;59.30
5210;DHT22;2624;48.048;11.706;2022-07-17T10:09:30;23.10;58.80
5210;DHT22;2624;48.048;11.706;2022-07-17T10:14:33;23.50;59.90
5210;DHT22;2624;48.048;11.706;2022-07-17T10:19:46;22.40;62.90
5210;DHT22;2624;48.048;11.706;2022-07-17T10:24:50;21.70;63.10
5210;DHT22;2624;48.048;11.706;2022-07-17T10:30:01;22.00;64.10
5210;DHT22;2624;48.048;11.706;2022-07-17T10:35:06;22.30;62.70
5210;DHT22;2624;48.048;11.706;2022-07-17T10:40:11;23.30;59.40
5210;DHT22;2624;48.048;11.706;2022-07-17T10:45:19;23.30;62.20
5210;DHT22;2624;48.048;11.706;2022-07-17T10:50:23;23.60;58.90
5210;DHT22;2624;48.048;11.706;2022-07-17T10:55:25;24.00;59.80
5210;DHT22;2624;48.048;11.706;2022-07-17T11:00:29;24.20;59.20
5210;DHT22;2624;48.048;11.706;2022-07-17T11:05:31;23.40;63.20
5210;DHT22;2624;48.048;11.706;2022-07-17T11:10:32;24.00;58.40
5210;DHT22;2624;48.048;11.706;2022-07-17T11:15:41;24.50;59.70
5210;DHT22;2624;48.048;11.706;2022-07-17T11:20:47;24.90;57.40
5210;DHT22;2624;48.048;11.706;2022-07-17T11:25:54;23.90;60.80
5210;DHT22;2624;48.048;11.706;2022-07-17T11:30:58;24.00;62.10
5210;DHT22;2624;48.048;11.706;2022-07-17T11:35:59;24.90;58.60
5210;DHT22;2624;48.048;11.706;2022-07-17T11:41:01;24.40;59.60
5210;DHT22;2624;48.048;11.706;2022-07-17T11:46:04;25.10;57.40
5210;DHT22;2624;48.048;11.706;2022-07-17T11:51:06;24.60;59.70
5210;DHT22;2624;48.048;11.706;2022-07-17T11:56:08;24.10;61.10
5210;DHT22;2624;48.048;11.706;2022-07-17T12:01:12;24.40;61.50
5210;DHT22;2624;48.048;11.706;2022-07-17T12:06:24;24.90;59.90
5210;DHT22;2624;48.048;11.706;2022-07-17T12:11:26;24.50;60.80
5210;DHT22;2624;48.048;11.706;2022-07-17T12:16:31;25.10;61.00
5210;DHT22;2624;48.048;11.706;2022-07-17T12:21:34;26.00;55.90
5210;DHT22;2624;48.048;11.706;2022-07-17T12:26:46;25.00;58.80
5210;DHT22;2624;48.048;11.706;2022-07-17T12:32:00;25.30;59.80
5210;DHT22;2624;48.048;11.706;2022-07-17T12:37:02;26.30;55.50
5210;DHT22;2624;48.048;11.706;2022-07-17T12:42:04;25.70;55.60
5210;DHT22;2624;48.048;11.706;2022-07-17T12:47:08;26.20;53.00
5210;DHT22;2624;48.048;11.706;2022-07-17T12:52:09;26.60;53.70
5210;DHT22;2624;48.048;11.706;2022-07-17T12:57:11;26.00;57.80
5210;DHT22;2624;48.048;11.706;2022-07-17T13:02:14;26.10;57.30
5210;DHT22;2624;48.048;11.706;2022-07-17T13:07:16;26.70;55.60
5210;DHT22;2624;48.048;11.706;2022-07-17T13:12:19;26.60;55.10
5210;DHT22;2624;48.048;11.706;2022-07-17T13:17:22;26.70;54.70
5210;DHT22;2624;48.048;11.706;2022-07-17T13:22:24;26.30;56.60
5210;DHT22;2624;48.048;11.706;2022-07-17T13:27:25;25.10;58.80
5210;DHT22;2624;48.048;11.706;2022-07-17T13:32:29;26.00;56.20
5210;DHT22;2624;48.048;11.706;2022-07-17T13:37:30;25.80;58.30
5210;DHT22;2624;48.048;11.706;2022-07-17T13:42:32;25.60;58.40
5210;DHT22;2624;48.048;11.706;2022-07-17T13:47:35;26.00;58.00
5210;DHT22;2624;48.048;11.706;2022-07-17T13:52:37;26.10;56.40
5210;DHT22;2624;48.048;11.706;2022-07-17T13:57:39;26.10;57.10
5210;DHT22;2624;48.048;11.706;2022-07-17T14:02:42;26.40;56.00
5210;DHT22;2624;48.048;11.706;2022-07-17T14:07:44;25.80;57.80
5210;DHT22;2624;48.048;11.706;2022-07-17T14:12:46;25.80;57.10
5210;DHT22;2624;48.048;11.706;2022-07-17T14:17:49;25.90;57.40
5210;DHT22;2624;48.048;11.706;2022-07-17T14:22:51;26.90;49.70
5210;DHT22;2624;48.048;11.706;2022-07-17T14:27:52;26.60;55.00
5210;DHT22;2624;48.048;11.706;2022-07-17T14:32:55;26.20;56.60
5210;DHT22;2624;48.048;11.706;2022-07-17T14:37:57;26.10;56.40
5210;DHT22;2624;48.048;11.706;2022-07-17T14:42:59;26.10;56.50
5210;DHT22;2624;48.048;11.706;2022-07-17T14:48:03;26.20;56.30
5210;DHT22;2624;48.048;11.706;2022-07-17T14:53:04;26.20;56.20
5210;DHT22;2624;48.048;11.706;2022-07-17T14:58:06;26.00;53.70
5210;DHT22;2624;48.048;11.706;2022-07-17T15:03:09;26.00;55.70
5210;DHT22;2624;48.048;11.706;2022-07-17T15:08:11;26.20;55.30
5210;DHT22;2624;48.048;11.706;2022-07-17T15:13:13;26.30;54.10
5210;DHT22;2624;48.048;11.706;2022-07-17T15:18:16;26.20;54.00
5210;DHT22;2624;48.048;11.706;2022-07-17T15:23:18;26.20;54.80
5210;DHT22;2624;48.048;11.706;2022-07-17T15:28:20;26.00;52.10
5210;DHT22;2624;48.048;11.706;2022-07-17T15:33:23;26.20;54.00
5210;DHT22;2624;48.048;11.706;2022-07-17T15:38:24;26.10;54.60
5210;DHT22;2624;48.048;11.706;2022-07-17T15:43:26;26.10;54.10
5210;DHT22;2624;48.048;11.706;2022-07-17T15:48:29;26.00;54.10
5210;DHT22;2624;48.048;11.706;2022-07-17T15:53:31;25.90;54.20
5210;DHT22;2624;48.048;11.706;2022-07-17T15:58:33;26.10;51.60
5210;DHT22;2624;48.048;11.706;2022-07-17T16:03:36;26.20;51.80
5210;DHT22;2624;48.048;11.706;2022-07-17T16:08:38;26.10;54.70
5210;DHT22;2624;48.048;11.706;2022-07-17T16:13:40;26.00;54.80
5210;DHT22;2624;48.048;11.706;2022-07-17T16:18:43;25.90;55.40
5210;DHT22;2624;48.048;11.706;2022-07-17T16:23:45;25.90;55.20
5210;DHT22;2624;48.048;11.706;2022-07-17T16:28:47;25.90;55.50
5210;DHT22;2624;48.048;11.706;2022-07-17T16:33:50;25.90;55.40
5210;DHT22;2624;48.048;11.706;2022-07-17T16:38:51;26.00;55.20
5210;DHT22;2624;48.048;11.706;2022-07-17T16:43:54;25.90;53.50
5210;DHT22;2624;48.048;11.706;2022-07-17T16:48:57;25.80;55.80
5210;DHT22;2624;48.048;11.706;2022-07-17T16:53:58;25.80;52.20
5210;DHT22;2624;48.048;11.706;2022-07-17T16:59:00;25.80;53.40
5210;DHT22;2624;48.048;11.706;2022-07-17T17:04:04;25.80;51.20
5210;DHT22;2624;48.048;11.706;2022-07-17T17:09:06;25.70;54.00
5210;DHT22;2624;48.048;11.706;2022-07-17T17:14:08;25.70;54.60
5210;DHT22;2624;48.048;11.706;2022-07-17T17:19:11;25.60;51.90
5210;DHT22;2624;48.048;11.706;2022-07-17T17:24:13;25.60;55.50
5210;DHT22;2624;48.048;11.706;2022-07-17T17:29:15;25.60;53.50
5210;DHT22;2624;48.048;11.706;2022-07-17T17:34:18;25.50;52.30
5210;DHT22;2624;48.048;11.706;2022-07-17T17:39:20;25.50;55.20
5210;DHT22;2624;48.048;11.706;2022-07-17T17:44:22;25.40;52.50
5210;DHT22;2624;48.048;11.706;2022-07-17T17:49:27;25.40;53.40
5210;DHT22;2624;48.048;11.706;2022-07-17T17:54:29;25.30;53.60
5210;DHT22;2624;48.048;11.706;2022-07-17T17:59:30;25.30;53.90
5210;DHT22;2624;48.048;11.706;2022-07-17T18:04:34;25.30;53.50
5210;DHT22;2624;48.048;11.706;2022-07-17T18:09:35;25.20;55.50
5210;DHT22;2624;48.048;11.706;2022-07-17T18:14:37;25.00;55.30
5210;DHT22;2624;48.048;11.706;2022-07-17T18:19:40;24.90;55.60
5210;DHT22;2624;48.048;11.706;2022-07-17T18:24:42;24.70;55.40
5210;DHT22;2624;48.048;11.706;2022-07-17T18:29:44;24.70;55.80
5210;DHT22;2624;48.048;11.706;2022-07-17T18:34:47;24.70;56.80
5210;DHT22;2624;48.048;11.706;2022-07-17T18:39:49;24.70;57.10
5210;DHT22;2624;48.048;11.706;2022-07-17T18:44:51;24.60;56.50
5210;DHT22;2624;48.048;11.706;2022-07-17T18:49:54;24.40;56.10
5210;DHT22;2624;48.048;11.706;2022-07-17T18:54:55;24.20;56.00
5210;DHT22;2624;48.048;11.706;2022-07-17T18:59:58;24.00;56.40
5210;DHT22;2624;48.048;11.706;2022-07-17T19:05:01;24.00;56.60
5210;DHT22;2624;48.048;11.706;2022-07-17T19:10:04;24.00;56.70
5210;DHT22;2624;48.048;11.706;2022-07-17T19:15:06;23.90;57.00
5210;DHT22;2624;48.048;11.706;2022-07-17T19:20:12;24.10;59.10
5210;DHT22;2624;48.048;11.706;2022-07-17T19:25:15;24.10;58.40
5210;DHT22;2624;48.048;11.706;2022-07-17T19:30:17;23.80;59.30
5210;DHT22;2624;48.048;11.706;2022-07-17T19:35:20;23.90;60.00
5210;DHT22;2624;48.048;11.706;2022-07-17T19:40:22;24.20;60.20
5210;DHT22;2624;48.048;11.706;2022-07-17T19:45:25;24.10;60.70
5210;DHT22;2624;48.048;11.706;2022-07-17T19:50:28;24.10;60.90
5210;DHT22;2624;48.048;11.706;2022-07-17T19:55:30;24.10;61.10
5210;DHT22;2624;48.048;11.706;2022-07-17T20:00:32;23.60;61.90
5210;DHT22;2624;48.048;11.706;2022-07-17T20:05:35;23.70;61.50
5210;DHT22;2624;48.048;11.706;2022-07-17T20:10:37;23.20;62.10
5210;DHT22;2624;48.048;11.706;2022-07-17T20:15:39;22.90;62.10
5210;DHT22;2624;48.048;11.706;2022-07-17T20:20:42;22.90;62.10
5210;DHT22;2624;48.048;11.706;2022-07-17T20:25:46;23.40;62.60
5210;DHT22;2624;48.048;11.706;2022-07-17T20:30:48;23.30;62.10
5210;DHT22;2624;48.048;11.706;2022-07-17T20:35:51;22.90;62.80
5210;DHT22;2624;48.048;11.706;2022-07-17T20:40:54;22.90;63.20
5210;DHT22;2624;48.048;11.706;2022-07-17T20:45:56;23.20;62.90
5210;DHT22;2624;48.048;11.706;2022-07-17T20:50:59;23.20;62.70
5210;DHT22;2624;48.048;11.706;2022-07-17T20:56:03;22.90;64.10
5210;DHT22;2624;48.048;11.706;2022-07-17T21:01:05;23.00;63.80
5210;DHT22;2624;48.048;11.706;2022-07-17T21:06:08;22.40;63.90
5210;DHT22;2624;48.048;11.706;2022-07-17T21:11:10;22.00;65.00
5210;DHT22;2624;48.048;11.706;2022-07-17T21:16:13;22.00;65.20
5210;DHT22;2624;48.048;11.706;2022-07-17T21:21:18;22.20;65.00
5210;DHT22;2624;48.048;11.706;2022-07-17T21:26:20;21.60;66.20
5210;DHT22;2624;48.048;11.706;2022-07-17T21:31:22;21.90;65.40
5210;DHT22;2624;48.048;11.706;2022-07-17T21:36:25;22.30;64.80
5210;DHT22;2624;48.048;11.706;2022-07-17T21:41:27;21.90;65.40
5210;DHT22;2624;48.048;11.706;2022-07-17T21:46:29;22.10;65.30
5210;DHT22;2624;48.048;11.706;2022-07-17T21:51:32;22.30;64.50
5210;DHT22;2624;48.048;11.706;2022-07-17T21:56:34;21.80;65.70
5210;DHT22;2624;48.048;11.706;2022-07-17T22:01:36;21.70;66.10
5210;DHT22;2624;48.048;11.706;2022-07-17T22:06:39;21.50;66.40
5210;DHT22;2624;48.048;11.706;2022-07-17T22:11:41;21.10;68.10
5210;DHT22;2624;48.048;11.706;2022-07-17T22:16:44;20.90;68.80
5210;DHT22;2624;48.048;11.706;2022-07-17T22:21:47;21.20;67.50
5210;DHT22;2624;48.048;11.706;2022-07-17T22:26:50;21.70;66.20
5210;DHT22;2624;48.048;11.706;2022-07-17T22:31:52;20.80;69.00
5210;DHT22;2624;48.048;11.706;2022-07-17T22:36:55;20.60;69.60
5210;DHT22;2624;48.048;11.706;2022-07-17T22:41:57;20.40;70.00
5210;DHT22;2624;48.048;11.706;2022-07-17T22:46:58;20.20;70.50
5210;DHT22;2624;48.048;11.706;2022-07-17T22:52:02;20.10;70.90
5210;DHT22;2624;48.048;11.706;2022-07-17T22:57:04;20.00;71.20
5210;DHT22;2624;48.048;11.706;2022-07-17T23:02:06;20.00;71.10
5210;DHT22;2624;48.048;11.706;2022-07-17T23:07:10;20.50;69.10
5210;DHT22;2624;48.048;11.706;2022-07-17T23:12:13;21.00;67.50
5210;DHT22;2624;48.048;11.706;2022-07-17T23:17:15;20.60;68.70
5210;DHT22;2624;48.048;11.706;2022-07-17T23:22:18;19.90;70.70
5210;DHT22;2624;48.048;11.706;2022-07-17T23:27:20;20.10;69.80
5210;DHT22;2624;48.048;11.706;2022-07-17T23:32:21;20.30;69.20
5210;DHT22;2624;48.048;11.706;2022-07-17T23:37:28;19.90;70.10
5210;DHT22;2624;48.048;11.706;2022-07-17T23:42:31;19.70;70.90
5210;DHT22;2624;48.048;11.706;2022-07-17T23:47:33;20.20;69.30
5210;DHT22;2624;48.048;11.706;2022-07-17T23:52:37;20.00;70.00
5210;DHT22;2624;48.048;11.706;2022-07-17T23:57:39;19.60;71.20
